Time;durP1;ratioP1;P1;durP2;ratioP2;P2;SDS_P1;SDS_P2;PMS_P1;PMS_P2;Temp;Humidity;BMP_temperature;BMP_pressure;BME280_temperature;BME280_humidity;BME280_pressure;Samples;Min_cycle;Max_cycle;Signal;HPM_P1;HPM_P2
2024/02/26 00:01:14;;;;;;;4.40;2.88;;;;;;;;;;5033302;28;20049;-61
2024/02/26 00:03:42;;;;;;;3.75;2.75;;;;;;;;;;5033216;28;20057;-61
2024/02/26 00:06:08;;;;;;;4.13;2.58;;;;;;;;;;5033437;28;20499;-61
2024/02/26 00:08:37;;;;;;;3.95;2.33;;;;;;;;;;5033351;28;20479;-61
2024/02/26 00:11:04;;;;;;;3.80;2.40;;;;;;;;;;5033197;28;20493;-61
2024/02/26 00:13:30;;;;;;;4.07;2.30;;;;;;;;;;5033552;28;20061;-61
2024/02/26 00:15:57;;;;;;;3.50;2.28;;;;;;;;;;5032854;28;20053;-61
2024/02/26 00:18:24;;;;;;;4.35;2.80;;;;;;;;;;5032980;28;20045;-62
2024/02/26 00:20:51;;;;;;;3.45;2.30;;;;;;;;;;5033181;28;20049;-61
2024/02/26 00:23:18;;;;;;;3.40;2.10;;;;;;;;;;5032886;28;20428;-61
2024/02/26 00:25:46;;;;;;;2.97;2.30;;;;;;;;;;5033027;28;20049;-61
2024/02/26 00:28:14;;;;;;;3.88;2.20;;;;;;;;;;5032949;28;20053;-61
2024/02/26 00:30:41;;;;;;;4.32;2.30;;;;;;;;;;5032828;28;20060;-61
2024/02/26 00:33:07;;;;;;;3.22;1.90;;;;;;;;;;5033330;28;20068;-62
2024/02/26 00:35:34;;;;;;;3.35;2.13;;;;;;;;;;5032991;28;20412;-62
2024/02/26 00:38:03;;;;;;;3.55;1.92;;;;;;;;;;5032859;28;20057;-61
2024/02/26 00:40:30;;;;;;;3.53;2.17;;;;;;;;;;5032729;28;20601;-61
2024/02/26 00:42:58;;;;;;;2.13;1.45;;;;;;;;;;5032999;28;20053;-61
2024/02/26 00:45:25;;;;;;;3.13;1.67;;;;;;;;;;5032504;28;20073;-61
2024/02/26 00:47:51;;;;;;;2.83;1.80;;;;;;;;;;5032914;28;20049;-61
2024/02/26 00:50:18;;;;;;;2.88;1.80;;;;;;;;;;5032378;28;20053;-61
2024/02/26 00:52:45;;;;;;;2.72;1.60;;;;;;;;;;5032707;28;20080;-61
2024/02/26 00:55:12;;;;;;;2.17;1.52;;;;;;;;;;5032018;28;20056;-61
2024/02/26 00:57:40;;;;;;;2.47;1.50;;;;;;;;;;5032758;28;20053;-61
2024/02/26 01:00:09;;;;;;;2.55;1.42;;;;;;;;;;5032625;28;20398;-61
2024/02/26 01:02:36;;;;;;;3.10;1.70;;;;;;;;;;5032999;28;20056;-61
2024/02/26 01:05:03;;;;;;;3.10;1.80;;;;;;;;;;5032191;28;20068;-61
2024/02/26 01:07:35;;;;;;;3.42;1.48;;;;;;;;;;5032639;28;20097;-61
2024/02/26 01:10:02;;;;;;;2.60;1.60;;;;;;;;;;5032447;28;20049;-61
2024/02/26 01:12:29;;;;;;;2.95;1.58;;;;;;;;;;5032467;28;20053;-61
2024/02/26 01:14:55;;;;;;;3.38;1.65;;;;;;;;;;5032200;28;20076;-60
2024/02/26 01:17:24;;;;;;;2.47;1.52;;;;;;;;;;5032630;28;20053;-61
2024/02/26 01:19:50;;;;;;;2.60;1.50;;;;;;;;;;5032333;28;20440;-62
2024/02/26 01:22:17;;;;;;;2.33;1.50;;;;;;;;;;5032546;28;20393;-61
2024/02/26 01:24:44;;;;;;;2.53;1.60;;;;;;;;;;5031824;28;20081;-61
2024/02/26 01:27:11;;;;;;;2.60;1.33;;;;;;;;;;5032059;28;20057;-61
2024/02/26 01:29:37;;;;;;;2.80;1.60;;;;;;;;;;5031764;28;20057;-61
2024/02/26 01:32:05;;;;;;;2.15;1.30;;;;;;;;;;5031822;28;20512;-61
2024/02/26 01:34:33;;;;;;;2.60;1.50;;;;;;;;;;5029621;28;20120;-61
2024/02/26 01:37:00;;;;;;;3.13;1.70;;;;;;;;;;5031570;28;20053;-61
2024/02/26 01:39:28;;;;;;;3.00;1.70;;;;;;;;;;5032050;28;20052;-61
2024/02/26 01:41:55;;;;;;;2.42;1.38;;;;;;;;;;5032206;28;20503;-61
2024/02/26 01:44:22;;;;;;;2.80;1.42;;;;;;;;;;5031895;28;20104;-61
2024/02/26 01:46:49;;;;;;;2.25;1.58;;;;;;;;;;5031809;28;20058;-61
2024/02/26 01:49:16;;;;;;;3.40;1.60;;;;;;;;;;5031762;28;20049;-61
2024/02/26 01:51:45;;;;;;;2.92;1.70;;;;;;;;;;5032149;28;20064;-60
2024/02/26 01:54:11;;;;;;;2.97;1.90;;;;;;;;;;5032071;28;20057;-61
2024/02/26 01:56:39;;;;;;;3.15;1.85;;;;;;;;;;5032111;28;20507;-62
2024/02/26 01:59:06;;;;;;;2.70;2.00;;;;;;;;;;5031883;28;20049;-61
2024/02/26 02:01:34;;;;;;;2.75;1.90;;;;;;;;;;5032184;28;20060;-62
2024/02/26 02:04:01;;;;;;;2.88;1.75;;;;;;;;;;5032026;28;20057;-62
2024/02/26 02:06:28;;;;;;;3.95;2.00;;;;;;;;;;5033232;28;20060;-61
2024/02/26 02:08:57;;;;;;;4.20;1.70;;;;;;;;;;5035739;28;20068;-60
2024/02/26 02:11:24;;;;;;;2.17;1.60;;;;;;;;;;5035548;28;20069;-60
2024/02/26 02:13:50;;;;;;;2.00;1.30;;;;;;;;;;5036046;28;20057;-60
2024/02/26 02:16:17;;;;;;;2.65;1.60;;;;;;;;;;5035385;28;20053;-60
2024/02/26 02:18:44;;;;;;;2.38;1.83;;;;;;;;;;5035731;28;20500;-61
2024/02/26 02:21:12;;;;;;;2.38;1.50;;;;;;;;;;5035245;28;20141;-61
2024/02/26 02:23:40;;;;;;;3.25;1.67;;;;;;;;;;5035777;28;20492;-61
2024/02/26 02:26:07;;;;;;;2.47;1.52;;;;;;;;;;5035161;28;20060;-61
2024/02/26 02:28:33;;;;;;;2.40;1.50;;;;;;;;;;5035125;28;20412;-61
2024/02/26 02:31:01;;;;;;;2.70;1.63;;;;;;;;;;5034985;28;20060;-61
2024/02/26 02:33:28;;;;;;;2.35;1.50;;;;;;;;;;5035028;28;20053;-59
2024/02/26 02:35:55;;;;;;;3.10;1.70;;;;;;;;;;5035415;28;20058;-61
2024/02/26 02:38:25;;;;;;;2.55;1.67;;;;;;;;;;5035358;28;20053;-61
2024/02/26 02:40:52;;;;;;;3.13;1.52;;;;;;;;;;5034792;28;20488;-60
2024/02/26 02:43:19;;;;;;;3.30;1.63;;;;;;;;;;5034899;28;20523;-61
2024/02/26 02:45:45;;;;;;;2.58;1.60;;;;;;;;;;5040176;28;20083;-61
2024/02/26 02:48:12;;;;;;;3.20;1.60;;;;;;;;;;5055032;28;20380;-61
2024/02/26 02:50:39;;;;;;;2.40;1.55;;;;;;;;;;5054847;28;20052;-61
2024/02/26 02:53:06;;;;;;;3.80;1.80;;;;;;;;;;5055023;28;20467;-61
2024/02/26 02:55:34;;;;;;;1.95;1.30;;;;;;;;;;5054199;28;20068;-61
2024/02/26 02:58:01;;;;;;;1.92;1.60;;;;;;;;;;5054950;28;20167;-61
2024/02/26 03:00:28;;;;;;;2.25;1.50;;;;;;;;;;5054882;28;20060;-61
2024/02/26 03:02:54;;;;;;;2.13;1.50;;;;;;;;;;5054852;28;20045;-61
2024/02/26 03:05:22;;;;;;;2.92;1.58;;;;;;;;;;5054382;28;20056;-61
2024/02/26 03:07:48;;;;;;;3.67;1.73;;;;;;;;;;5054035;28;20436;-61
2024/02/26 03:10:15;;;;;;;3.15;1.70;;;;;;;;;;5054528;28;20052;-61
2024/02/26 03:12:43;;;;;;;2.60;1.83;;;;;;;;;;5054670;28;20052;-61
2024/02/26 03:15:11;;;;;;;2.55;1.40;;;;;;;;;;5054650;28;20514;-61
2024/02/26 03:17:38;;;;;;;3.65;1.40;;;;;;;;;;5054195;28;20059;-61
2024/02/26 03:20:06;;;;;;;1.88;1.40;;;;;;;;;;5054253;28;20056;-61
2024/02/26 03:22:34;;;;;;;2.90;1.50;;;;;;;;;;5054341;28;20076;-61
2024/02/26 03:25:01;;;;;;;2.55;1.38;;;;;;;;;;5054411;28;20064;-61
2024/02/26 03:27:28;;;;;;;2.22;1.45;;;;;;;;;;5054455;28;20056;-61
2024/02/26 03:29:56;;;;;;;3.33;1.45;;;;;;;;;;5054186;28;20052;-61
2024/02/26 03:32:23;;;;;;;3.33;1.55;;;;;;;;;;5053891;28;20060;-61
2024/02/26 03:34:54;;;;;;;2.58;1.60;;;;;;;;;;5054447;28;20060;-61
2024/02/26 03:37:20;;;;;;;2.97;1.80;;;;;;;;;;5054113;28;20416;-61
2024/02/26 03:39:47;;;;;;;3.15;1.80;;;;;;;;;;5054179;28;20053;-61
2024/02/26 03:42:14;;;;;;;2.47;1.83;;;;;;;;;;5053728;28;20064;-61
2024/02/26 03:44:41;;;;;;;2.17;1.60;;;;;;;;;;5053647;28;20095;-61
2024/02/26 03:47:09;;;;;;;2.70;1.98;;;;;;;;;;5053815;28;20065;-61
2024/02/26 03:49:36;;;;;;;2.53;1.83;;;;;;;;;;5053950;28;20052;-61
2024/02/26 03:52:03;;;;;;;4.85;2.00;;;;;;;;;;5053814;28;20492;-61
2024/02/26 03:54:30;;;;;;;3.75;1.90;;;;;;;;;;5053923;28;20411;-61
2024/02/26 03:56:56;;;;;;;3.38;2.08;;;;;;;;;;5053858;28;20054;-61
2024/02/26 03:59:24;;;;;;;2.78;2.10;;;;;;;;;;5053343;28;20400;-61
2024/02/26 04:01:51;;;;;;;3.05;1.90;;;;;;;;;;5053476;28;20052;-61
2024/02/26 04:04:19;;;;;;;2.40;1.88;;;;;;;;;;5053646;28;20480;-61
2024/02/26 04:06:46;;;;;;;2.80;2.10;;;;;;;;;;5053349;28;20060;-61
2024/02/26 04:09:14;;;;;;;2.83;2.03;;;;;;;;;;5053529;28;20072;-61
2024/02/26 04:11:43;;;;;;;3.08;2.28;;;;;;;;;;5053310;28;20052;-61
2024/02/26 04:14:11;;;;;;;3.45;1.90;;;;;;;;;;5052894;28;20412;-61
2024/02/26 04:16:38;;;;;;;3.03;2.00;;;;;;;;;;5053212;28;20056;-61
2024/02/26 04:19:06;;;;;;;3.08;2.00;;;;;;;;;;5053357;28;20060;-61
2024/02/26 04:21:34;;;;;;;3.45;2.08;;;;;;;;;;5052796;28;20053;-61
2024/02/26 04:24:01;;;;;;;3.80;1.98;;;;;;;;;;5053169;28;20053;-61
2024/02/26 04:26:28;;;;;;;3.80;2.08;;;;;;;;;;5053057;28;20056;-61
2024/02/26 04:28:55;;;;;;;2.97;1.85;;;;;;;;;;5053089;28;20408;-61
2024/02/26 04:31:22;;;;;;;3.15;2.00;;;;;;;;;;5052726;28;20403;-61
2024/02/26 04:33:48;;;;;;;3.50;1.98;;;;;;;;;;5053022;28;20072;-61
2024/02/26 04:36:16;;;;;;;2.78;2.10;;;;;;;;;;5052730;28;20049;-61
2024/02/26 04:38:44;;;;;;;2.42;1.85;;;;;;;;;;5052903;28;20049;-61
2024/02/26 04:41:11;;;;;;;3.75;1.98;;;;;;;;;;5052821;28;20053;-61
2024/02/26 04:43:41;;;;;;;3.75;2.10;;;;;;;;;;5052798;28;20060;-60
2024/02/26 04:46:08;;;;;;;2.78;1.88;;;;;;;;;;5052450;28;20064;-61
2024/02/26 04:48:35;;;;;;;3.50;2.10;;;;;;;;;;5052404;28;20064;-61
2024/02/26 04:51:02;;;;;;;2.72;2.05;;;;;;;;;;5052215;28;20416;-61
2024/02/26 04:53:28;;;;;;;4.88;2.38;;;;;;;;;;5052575;28;20049;-61
2024/02/26 04:55:57;;;;;;;5.53;2.92;;;;;;;;;;5052854;28;20480;-62
2024/02/26 04:58:24;;;;;;;4.65;2.45;;;;;;;;;;5052638;28;20056;-62
2024/02/26 05:00:50;;;;;;;2.45;2.00;;;;;;;;;;5052519;28;20049;-62
2024/02/26 05:03:17;;;;;;;3.88;2.15;;;;;;;;;;5052684;28;20500;-62
2024/02/26 05:05:44;;;;;;;3.67;1.92;;;;;;;;;;5052328;28;20057;-62
2024/02/26 05:08:11;;;;;;;2.70;2.17;;;;;;;;;;5052491;28;20053;-62
2024/02/26 05:10:40;;;;;;;3.50;2.17;;;;;;;;;;5052172;28;20053;-62
2024/02/26 05:13:08;;;;;;;3.17;1.95;;;;;;;;;;5051911;28;20056;-62
2024/02/26 05:15:35;;;;;;;3.00;2.20;;;;;;;;;;5052333;28;20053;-62
2024/02/26 05:18:02;;;;;;;2.88;2.17;;;;;;;;;;5052679;28;20053;-62
2024/02/26 05:20:29;;;;;;;3.28;2.60;;;;;;;;;;5052549;28;20056;-62
2024/02/26 05:22:58;;;;;;;3.40;2.70;;;;;;;;;;5052554;28;20056;-62
2024/02/26 05:25:25;;;;;;;3.20;2.47;;;;;;;;;;5052475;28;20063;-62
2024/02/26 05:27:52;;;;;;;4.22;2.47;;;;;;;;;;5052644;28;20507;-62
2024/02/26 05:30:20;;;;;;;3.33;2.10;;;;;;;;;;5052323;28;20400;-61
2024/02/26 05:32:47;;;;;;;3.70;2.08;;;;;;;;;;5052620;28;20056;-61
2024/02/26 05:35:14;;;;;;;3.28;2.03;;;;;;;;;;5052122;28;20393;-61
2024/02/26 05:37:41;;;;;;;4.78;2.05;;;;;;;;;;5052460;28;20049;-62
2024/02/26 05:40:09;;;;;;;2.88;2.15;;;;;;;;;;5052409;28;20492;-61
2024/02/26 05:42:36;;;;;;;4.10;2.25;;;;;;;;;;5055248;28;20056;-62
2024/02/26 05:45:05;;;;;;;3.63;1.90;;;;;;;;;;5056657;28;20048;-62
2024/02/26 05:47:34;;;;;;;3.58;1.90;;;;;;;;;;5056146;28;20064;-62
2024/02/26 05:50:01;;;;;;;2.50;1.90;;;;;;;;;;5056475;28;20135;-62
2024/02/26 05:52:29;;;;;;;3.15;2.10;;;;;;;;;;5055770;28;20048;-62
2024/02/26 05:54:56;;;;;;;3.58;2.13;;;;;;;;;;5056309;28;20056;-62
2024/02/26 05:57:22;;;;;;;3.22;2.35;;;;;;;;;;5055974;28;20049;-62
2024/02/26 05:59:49;;;;;;;3.80;2.10;;;;;;;;;;5055657;28;20055;-62
2024/02/26 06:02:16;;;;;;;3.90;2.00;;;;;;;;;;5055971;28;20053;-62
2024/02/26 06:04:44;;;;;;;2.70;2.28;;;;;;;;;;5055704;28;20053;-62
2024/02/26 06:07:11;;;;;;;3.03;2.20;;;;;;;;;;5055966;28;20052;-62
2024/02/26 06:09:37;;;;;;;2.55;2.10;;;;;;;;;;5055755;28;20056;-62
2024/02/26 06:12:04;;;;;;;3.25;2.13;;;;;;;;;;5055588;28;20072;-62
2024/02/26 06:14:31;;;;;;;3.08;2.10;;;;;;;;;;5055974;28;20060;-62
2024/02/26 06:16:58;;;;;;;2.60;2.10;;;;;;;;;;5055902;28;20053;-62
2024/02/26 06:19:25;;;;;;;3.72;2.30;;;;;;;;;;5055276;28;20075;-61
2024/02/26 06:21:53;;;;;;;3.40;2.08;;;;;;;;;;5055799;28;20060;-62
2024/02/26 06:24:20;;;;;;;2.67;2.05;;;;;;;;;;5055697;28;20059;-62
2024/02/26 06:26:47;;;;;;;3.08;2.00;;;;;;;;;;5055663;28;20045;-61
2024/02/26 06:29:14;;;;;;;2.70;1.92;;;;;;;;;;5055410;28;20053;-62
2024/02/26 06:31:41;;;;;;;3.20;2.00;;;;;;;;;;5055542;28;20056;-62
2024/02/26 06:34:08;;;;;;;3.40;2.10;;;;;;;;;;5055576;28;20488;-62
2024/02/26 06:36:35;;;;;;;3.67;1.80;;;;;;;;;;5055074;28;20053;-62
2024/02/26 06:39:05;;;;;;;2.92;1.90;;;;;;;;;;5054966;28;20048;-62
2024/02/26 06:41:32;;;;;;;3.25;2.22;;;;;;;;;;5055073;28;20049;-62
2024/02/26 06:43:58;;;;;;;2.88;2.00;;;;;;;;;;5055418;28;20056;-62
2024/02/26 06:46:25;;;;;;;3.55;2.00;;;;;;;;;;5054812;28;20053;-62
2024/02/26 06:48:53;;;;;;;2.47;1.95;;;;;;;;;;5055136;28;20056;-62
2024/02/26 06:51:20;;;;;;;2.92;2.20;;;;;;;;;;5054712;28;20056;-62
2024/02/26 06:53:46;;;;;;;2.92;2.30;;;;;;;;;;5053848;28;20072;-64
2024/02/26 06:56:15;;;;;;;2.70;2.03;;;;;;;;;;5054967;28;20499;-61
2024/02/26 06:58:41;;;;;;;3.13;2.20;;;;;;;;;;5055022;28;20052;-62
2024/02/26 07:01:09;;;;;;;3.38;2.20;;;;;;;;;;5054881;28;20053;-62
2024/02/26 07:03:35;;;;;;;2.67;2.10;;;;;;;;;;5054735;28;20056;-62
2024/02/26 07:06:02;;;;;;;2.90;2.30;;;;;;;;;;5054864;28;20056;-62
2024/02/26 07:08:29;;;;;;;3.63;2.40;;;;;;;;;;5054270;28;20053;-62
2024/02/26 07:10:56;;;;;;;3.92;2.50;;;;;;;;;;5054515;28;20057;-62
2024/02/26 07:13:24;;;;;;;3.42;2.40;;;;;;;;;;5054664;28;20049;-62
2024/02/26 07:15:51;;;;;;;3.67;2.60;;;;;;;;;;5054263;28;20064;-62
2024/02/26 07:18:18;;;;;;;3.22;2.60;;;;;;;;;;5054909;28;20079;-62
2024/02/26 07:20:44;;;;;;;3.45;2.67;;;;;;;;;;5054430;28;20053;-61
2024/02/26 07:23:12;;;;;;;2.90;2.40;;;;;;;;;;5054002;28;20055;-61
2024/02/26 07:25:39;;;;;;;4.80;2.42;;;;;;;;;;5054452;28;20057;-62
2024/02/26 07:28:06;;;;;;;5.43;2.63;;;;;;;;;;5054560;28;20049;-62
2024/02/26 07:30:34;;;;;;;3.88;2.80;;;;;;;;;;5054209;28;20049;-62
2024/02/26 07:33:01;;;;;;;3.97;3.00;;;;;;;;;;5054486;28;20053;-62
2024/02/26 07:35:28;;;;;;;5.32;3.22;;;;;;;;;;5054253;28;20480;-62
2024/02/26 07:37:55;;;;;;;3.90;3.10;;;;;;;;;;5054539;28;20407;-62
2024/02/26 07:40:22;;;;;;;4.05;2.95;;;;;;;;;;5054012;28;20411;-62
2024/02/26 07:42:48;;;;;;;4.78;3.33;;;;;;;;;;5053506;28;20060;-62
2024/02/26 07:45:19;;;;;;;4.15;3.03;;;;;;;;;;5053727;28;20060;-62
2024/02/26 07:47:47;;;;;;;5.15;3.17;;;;;;;;;;5054294;28;20063;-61
2024/02/26 07:50:14;;;;;;;4.20;3.20;;;;;;;;;;5053956;28;20158;-61
2024/02/26 07:52:41;;;;;;;5.00;3.42;;;;;;;;;;5053991;28;20045;-61
2024/02/26 07:55:08;;;;;;;5.05;3.05;;;;;;;;;;5053319;28;20061;-61
2024/02/26 07:57:35;;;;;;;5.50;3.85;;;;;;;;;;5054007;28;20139;-61
2024/02/26 08:00:02;;;;;;;5.00;3.42;;;;;;;;;;5053386;28;20053;-61
2024/02/26 08:02:29;;;;;;;5.43;3.45;;;;;;;;;;5053743;28;20372;-61
2024/02/26 08:04:57;;;;;;;4.75;3.15;;;;;;;;;;5053406;28;20053;-60
2024/02/26 08:07:24;;;;;;;5.03;3.17;;;;;;;;;;5053602;28;20429;-61
2024/02/26 08:09:51;;;;;;;4.72;3.38;;;;;;;;;;5053586;28;20052;-61
2024/02/26 08:12:17;;;;;;;4.82;3.05;;;;;;;;;;5053515;28;20064;-62
2024/02/26 08:14:44;;;;;;;6.75;3.58;;;;;;;;;;5053732;28;20057;-61
2024/02/26 08:17:11;;;;;;;5.43;3.10;;;;;;;;;;5053661;28;20060;-61
2024/02/26 08:19:38;;;;;;;4.95;3.30;;;;;;;;;;5053259;28;20056;-60
2024/02/26 08:22:06;;;;;;;4.97;2.90;;;;;;;;;;5053109;28;20056;-61
2024/02/26 08:24:33;;;;;;;4.15;2.83;;;;;;;;;;5052866;28;20061;-61
2024/02/26 08:27:00;;;;;;;3.25;2.60;;;;;;;;;;5053365;28;20053;-61
2024/02/26 08:29:27;;;;;;;12.68;8.82;;;;;;;;;;5053327;28;20060;-61
2024/02/26 08:31:54;;;;;;;39.58;23.17;;;;;;;;;;5053214;28;20049;-61
2024/02/26 08:34:20;;;;;;;15.32;12.27;;;;;;;;;;5052875;28;20407;-61
2024/02/26 08:36:48;;;;;;;6.57;5.70;;;;;;;;;;5052676;28;20061;-61
2024/02/26 08:39:17;;;;;;;6.00;4.70;;;;;;;;;;5052913;28;20060;-61
2024/02/26 08:41:44;;;;;;;3.60;3.13;;;;;;;;;;5052919;28;20480;-61
2024/02/26 08:44:10;;;;;;;3.60;3.17;;;;;;;;;;5053094;28;20407;-61
2024/02/26 08:46:37;;;;;;;4.82;3.65;;;;;;;;;;5052620;28;20061;-61
2024/02/26 08:49:05;;;;;;;4.78;3.30;;;;;;;;;;5052939;28;20060;-61
2024/02/26 08:51:31;;;;;;;4.75;2.88;;;;;;;;;;5052461;28;20059;-61
2024/02/26 08:53:58;;;;;;;4.53;2.70;;;;;;;;;;5052931;28;20724;-61
2024/02/26 08:56:27;;;;;;;11.52;7.82;;;;;;;;;;5052684;28;20404;-61
2024/02/26 08:58:56;;;;;;;22.98;20.67;;;;;;;;;;5052944;28;20057;-61
2024/02/26 09:01:24;;;;;;;5.35;4.85;;;;;;;;;;5052239;28;20064;-61
2024/02/26 09:03:51;;;;;;;4.72;3.10;;;;;;;;;;5052158;28;20052;-61
2024/02/26 09:06:17;;;;;;;5.43;3.97;;;;;;;;;;5052081;28;20159;-61
2024/02/26 09:08:44;;;;;;;4.80;3.75;;;;;;;;;;5052428;28;20053;-61
2024/02/26 09:11:11;;;;;;;7.57;6.18;;;;;;;;;;5052077;28;20052;-61
2024/02/26 09:13:39;;;;;;;5.13;3.75;;;;;;;;;;5052010;28;20049;-61
2024/02/26 09:16:06;;;;;;;6.65;3.70;;;;;;;;;;5051699;28;20491;-61
2024/02/26 09:18:33;;;;;;;4.45;3.38;;;;;;;;;;5052022;28;20052;-61
2024/02/26 09:21:00;;;;;;;5.13;3.58;;;;;;;;;;5051929;28;20061;-61
2024/02/26 09:23:27;;;;;;;5.60;3.88;;;;;;;;;;5052085;28;20055;-61
2024/02/26 09:25:53;;;;;;;9.50;7.43;;;;;;;;;;5052057;28;20059;-61
2024/02/26 09:28:20;;;;;;;7.45;6.57;;;;;;;;;;5051965;28;20059;-61
2024/02/26 09:30:49;;;;;;;9.98;7.47;;;;;;;;;;5052202;28;20060;-61
2024/02/26 09:33:15;;;;;;;10.88;7.28;;;;;;;;;;5052098;28;20483;-61
2024/02/26 09:35:42;;;;;;;6.78;4.53;;;;;;;;;;5051702;28;20064;-62
2024/02/26 09:38:09;;;;;;;21.20;13.63;;;;;;;;;;5052206;28;20052;-61
2024/02/26 09:40:37;;;;;;;11.70;7.07;;;;;;;;;;5051848;28;20479;-62
2024/02/26 09:43:05;;;;;;;6.70;4.50;;;;;;;;;;5052305;28;20060;-61
2024/02/26 09:45:33;;;;;;;22.92;16.73;;;;;;;;;;5051612;28;20053;-62
2024/02/26 09:48:03;;;;;;;11.50;8.40;;;;;;;;;;5052169;28;20418;-61
2024/02/26 09:50:30;;;;;;;32.75;21.25;;;;;;;;;;5051282;28;20052;-61
2024/02/26 09:52:59;;;;;;;6.57;4.95;;;;;;;;;;5051810;28;20045;-61
2024/02/26 09:55:26;;;;;;;7.25;5.85;;;;;;;;;;5051642;28;20057;-61
2024/02/26 09:57:53;;;;;;;4.97;3.85;;;;;;;;;;5052073;28;20259;-62
2024/02/26 10:00:20;;;;;;;23.13;16.08;;;;;;;;;;5051847;28;20069;-61
2024/02/26 10:02:47;;;;;;;12.52;8.93;;;;;;;;;;5052063;28;20045;-61
2024/02/26 10:05:17;;;;;;;6.10;3.92;;;;;;;;;;5051935;28;20408;-61
2024/02/26 10:07:44;;;;;;;3.97;2.95;;;;;;;;;;5051952;28;20056;-62
2024/02/26 10:10:11;;;;;;;5.10;3.65;;;;;;;;;;5051621;28;20057;-61
2024/02/26 10:12:38;;;;;;;6.80;4.97;;;;;;;;;;5051954;28;20045;-61
2024/02/26 10:15:05;;;;;;;10.77;7.95;;;;;;;;;;5052093;28;20060;-62
2024/02/26 10:17:32;;;;;;;19.58;14.02;;;;;;;;;;5052140;28;20052;-61
2024/02/26 10:20:12;;;;;;;25.52;18.65;;;;;;;;;;5051764;28;20056;-62
2024/02/26 10:22:40;;;;;;;9.48;7.15;;;;;;;;;;5051892;28;20049;-62
2024/02/26 10:25:07;;;;;;;20.73;15.10;;;;;;;;;;5051773;28;20071;-62
2024/02/26 10:27:34;;;;;;;25.20;18.42;;;;;;;;;;5053223;28;20064;-62
2024/02/26 10:30:03;;;;;;;14.63;10.38;;;;;;;;;;5054860;28;20053;-62
2024/02/26 10:32:30;;;;;;;11.43;8.70;;;;;;;;;;5055428;28;20140;-61
2024/02/26 10:34:57;;;;;;;9.60;7.35;;;;;;;;;;5055319;28;20060;-61
2024/02/26 10:37:25;;;;;;;12.98;9.98;;;;;;;;;;5055274;28;20049;-62
2024/02/26 10:39:53;;;;;;;9.82;6.88;;;;;;;;;;5055301;28;20060;-62
2024/02/26 10:42:20;;;;;;;7.88;5.90;;;;;;;;;;5055057;28;20049;-62
2024/02/26 10:44:48;;;;;;;9.90;7.15;;;;;;;;;;5055384;28;20053;-62
2024/02/26 10:47:15;;;;;;;18.65;14.27;;;;;;;;;;5055008;28;20053;-62
2024/02/26 10:49:46;;;;;;;10.68;8.02;;;;;;;;;;5054858;28;20056;-60
2024/02/26 10:52:13;;;;;;;8.63;6.63;;;;;;;;;;5055194;28;20492;-61
2024/02/26 10:54:43;;;;;;;10.70;8.30;;;;;;;;;;5054904;28;20052;-62
2024/02/26 10:57:12;;;;;;;20.77;14.40;;;;;;;;;;5055006;28;20059;-63
2024/02/26 10:59:40;;;;;;;8.75;6.25;;;;;;;;;;5054269;28;20057;-60
2024/02/26 11:02:08;;;;;;;12.25;8.45;;;;;;;;;;5054602;28;20068;-63
2024/02/26 11:04:35;;;;;;;11.40;8.07;;;;;;;;;;5054659;28;20055;-62
2024/02/26 11:07:02;;;;;;;9.55;7.35;;;;;;;;;;5054900;28;20048;-62
2024/02/26 11:09:29;;;;;;;7.70;6.72;;;;;;;;;;5054830;28;20053;-62
2024/02/26 11:11:57;;;;;;;8.88;6.18;;;;;;;;;;5054799;28;20053;-62
2024/02/26 11:14:26;;;;;;;16.05;11.52;;;;;;;;;;5054652;28;20044;-62
2024/02/26 11:16:54;;;;;;;10.73;8.70;;;;;;;;;;5054725;28;20053;-62
2024/02/26 11:19:21;;;;;;;9.40;7.35;;;;;;;;;;5054684;28;20057;-62
2024/02/26 11:21:48;;;;;;;10.48;8.45;;;;;;;;;;5054713;28;20111;-62
2024/02/26 11:24:18;;;;;;;11.48;8.32;;;;;;;;;;5054282;28;20388;-62
2024/02/26 11:26:47;;;;;;;8.43;7.40;;;;;;;;;;5054748;28;20380;-62
2024/02/26 11:29:14;;;;;;;;;;;;;;;;;;5055026;28;20053;-62
2024/02/26 11:31:42;;;;;;;10.20;7.35;;;;;;;;;;5054559;28;20283;-62
2024/02/26 11:34:09;;;;;;;8.23;6.78;;;;;;;;;;5054479;28;20443;-62
2024/02/26 11:36:37;;;;;;;8.55;7.40;;;;;;;;;;5054200;28;20048;-62
2024/02/26 11:39:04;;;;;;;8.05;7.05;;;;;;;;;;5053772;28;20053;-62
2024/02/26 11:41:31;;;;;;;9.52;8.27;;;;;;;;;;5054076;28;20060;-62
2024/02/26 11:44:00;;;;;;;9.30;6.95;;;;;;;;;;5054243;28;20412;-62
2024/02/26 11:46:27;;;;;;;8.68;7.35;;;;;;;;;;5053657;28;20061;-62
2024/02/26 11:48:56;;;;;;;7.75;6.55;;;;;;;;;;5054071;28;20052;-61
2024/02/26 11:51:26;;;;;;;7.43;6.10;;;;;;;;;;5054172;28;20053;-62
2024/02/26 11:53:53;;;;;;;6.05;4.85;;;;;;;;;;5053609;28;20071;-62
2024/02/26 11:56:23;;;;;;;7.28;5.53;;;;;;;;;;5054066;28;20064;-62
2024/02/26 11:58:54;;;;;;;5.95;4.53;;;;;;;;;;5054025;28;20048;-62
2024/02/26 12:01:39;;;;;;;7.93;6.20;;;;;;;;;;5053871;28;20052;-62
2024/02/26 12:04:08;;;;;;;7.03;4.95;;;;;;;;;;5053377;28;20056;-62
2024/02/26 12:06:48;;;;;;;6.22;4.47;;;;;;;;;;5053825;28;20065;-62
2024/02/26 12:09:30;;;;;;;6.45;5.30;;;;;;;;;;5054139;28;20403;-62
2024/02/26 12:11:57;;;;;;;5.13;4.40;;;;;;;;;;5053813;28;20048;-62
2024/02/26 12:14:26;;;;;;;6.20;5.25;;;;;;;;;;5053530;28;20071;-62
2024/02/26 12:16:53;;;;;;;6.65;5.72;;;;;;;;;;5053215;28;20052;-62
2024/02/26 12:19:22;;;;;;;6.15;4.80;;;;;;;;;;5053519;28;20078;-62
2024/02/26 12:21:52;;;;;;;4.97;4.45;;;;;;;;;;5053589;28;20373;-62
2024/02/26 12:24:19;;;;;;;6.70;4.55;;;;;;;;;;5053456;28;20049;-62
2024/02/26 12:26:46;;;;;;;6.97;5.75;;;;;;;;;;5053193;28;20053;-61
2024/02/26 12:29:13;;;;;;;7.35;5.65;;;;;;;;;;5053014;28;20053;-62
2024/02/26 12:31:40;;;;;;;5.80;5.20;;;;;;;;;;5053306;28;20052;-62
2024/02/26 12:34:09;;;;;;;5.43;3.53;;;;;;;;;;5052796;28;20049;-62
2024/02/26 12:36:38;;;;;;;6.80;6.10;;;;;;;;;;5053053;28;20052;-62
2024/02/26 12:39:05;;;;;;;5.65;4.20;;;;;;;;;;5052340;28;20052;-62
2024/02/26 12:41:32;;;;;;;5.43;4.10;;;;;;;;;;5052386;28;20056;-62
2024/02/26 12:44:00;;;;;;;8.10;5.40;;;;;;;;;;5052387;28;20408;-60
2024/02/26 12:46:26;;;;;;;7.00;6.22;;;;;;;;;;5052136;28;20152;-61
2024/02/26 12:48:57;;;;;;;7.47;5.68;;;;;;;;;;5052818;28;20049;-61
2024/02/26 12:51:24;;;;;;;7.50;5.30;;;;;;;;;;5050916;28;20395;-61
2024/02/26 12:53:52;;;;;;;6.55;4.43;;;;;;;;;;5052595;28;20056;-62
2024/02/26 12:56:19;;;;;;;6.55;5.20;;;;;;;;;;5052451;28;20044;-61
2024/02/26 12:58:47;;;;;;;9.23;6.65;;;;;;;;;;5052479;28;20053;-61
2024/02/26 13:01:15;;;;;;;8.65;6.18;;;;;;;;;;5052210;28;20048;-62
2024/02/26 13:03:43;;;;;;;7.25;5.47;;;;;;;;;;5051888;28;20083;-61
2024/02/26 13:06:10;;;;;;;7.63;6.13;;;;;;;;;;5052215;28;20053;-61
2024/02/26 13:08:37;;;;;;;9.15;8.13;;;;;;;;;;5052505;28;20057;-61
2024/02/26 13:11:05;;;;;;;13.02;10.23;;;;;;;;;;5051788;28;20049;-61
2024/02/26 13:13:32;;;;;;;9.50;6.22;;;;;;;;;;5051735;28;20057;-61
2024/02/26 13:16:02;;;;;;;12.65;9.48;;;;;;;;;;5051968;28;20049;-61
2024/02/26 13:18:30;;;;;;;8.55;6.72;;;;;;;;;;5051647;28;20059;-61
2024/02/26 13:21:06;;;;;;;20.13;14.93;;;;;;;;;;5051618;28;20060;-61
2024/02/26 13:23:33;;;;;;;22.98;16.63;;;;;;;;;;5052148;28;20053;-61
2024/02/26 13:26:00;;;;;;;8.38;6.75;;;;;;;;;;5051920;28;20057;-61
2024/02/26 13:28:28;;;;;;;6.82;6.03;;;;;;;;;;5051854;28;20049;-61
2024/02/26 13:30:56;;;;;;;9.13;7.25;;;;;;;;;;5051093;28;20049;-61
2024/02/26 13:33:24;;;;;;;6.88;5.43;;;;;;;;;;5051414;28;20049;-61
2024/02/26 13:35:50;;;;;;;8.02;6.38;;;;;;;;;;5050498;28;20053;-62
2024/02/26 13:38:17;;;;;;;6.28;5.13;;;;;;;;;;5051927;28;20522;-61
2024/02/26 13:40:44;;;;;;;6.10;5.18;;;;;;;;;;5052017;28;20053;-61
2024/02/26 13:43:11;;;;;;;7.38;5.60;;;;;;;;;;5052212;28;20057;-62
2024/02/26 13:45:39;;;;;;;5.90;5.22;;;;;;;;;;5051991;28;20064;-61
2024/02/26 13:48:07;;;;;;;6.25;5.15;;;;;;;;;;5052331;28;20064;-62
2024/02/26 13:50:34;;;;;;;6.35;5.00;;;;;;;;;;5052149;28;20060;-61
2024/02/26 13:53:01;;;;;;;7.22;5.30;;;;;;;;;;5052334;28;20056;-61
2024/02/26 13:55:30;;;;;;;6.82;4.95;;;;;;;;;;5051993;28;20048;-61
2024/02/26 13:57:57;;;;;;;6.45;4.68;;;;;;;;;;5052069;28;20057;-61
2024/02/26 14:00:24;;;;;;;7.40;5.30;;;;;;;;;;5051790;28;20069;-61
2024/02/26 14:02:52;;;;;;;6.22;4.72;;;;;;;;;;5053959;28;20049;-62
2024/02/26 14:05:19;;;;;;;7.95;5.43;;;;;;;;;;5055530;28;20056;-61
2024/02/26 14:07:46;;;;;;;5.93;4.85;;;;;;;;;;5056036;28;20372;-62
2024/02/26 14:10:13;;;;;;;6.40;4.90;;;;;;;;;;5055466;28;20079;-61
2024/02/26 14:12:40;;;;;;;6.78;4.63;;;;;;;;;;5055682;28;20484;-61
2024/02/26 14:15:08;;;;;;;9.73;5.78;;;;;;;;;;5055198;28;20060;-61
2024/02/26 14:17:34;;;;;;;6.07;4.70;;;;;;;;;;5055850;28;20056;-61
2024/02/26 14:20:03;;;;;;;6.78;4.35;;;;;;;;;;5055583;28;20049;-61
2024/02/26 14:22:30;;;;;;;6.97;4.88;;;;;;;;;;5055558;28;20061;-61
2024/02/26 14:24:57;;;;;;;6.57;4.90;;;;;;;;;;5055212;28;20056;-61
2024/02/26 14:27:23;;;;;;;5.80;4.57;;;;;;;;;;5055384;28;20056;-61
2024/02/26 14:29:50;;;;;;;5.78;4.72;;;;;;;;;;5055289;28;20377;-61
2024/02/26 14:32:17;;;;;;;8.43;6.10;;;;;;;;;;5055318;28;20049;-62
2024/02/26 14:34:44;;;;;;;10.23;7.55;;;;;;;;;;5054723;28;20054;-61
2024/02/26 14:37:12;;;;;;;9.63;6.97;;;;;;;;;;5055399;28;20049;-61
2024/02/26 14:39:39;;;;;;;9.15;7.13;;;;;;;;;;5055125;28;20060;-61
2024/02/26 14:42:06;;;;;;;16.00;8.70;;;;;;;;;;5054941;28;20484;-61